Cameron Corners (448, 449, 6923) Station Data

Red Flag Warning: No
Fire Weather Zone: 258
SDGE Region: Mountain Empire
Lat/Lon: 32.646/-116.497

Observations

Time Wind Speed/Gust Temp(F) RH Fuel Moist Fuel Temp(F) Dewpt(F) Tmax(F) Tmin(F) Accum Precip 10-min Precip SL Press(mb)
4/26 2:50am 358 4 G 6 44° 85% - - 40° 46.9° 43.5° - - 887.0
4/26 2:40am 357 4 G 5 45° 87% - - 41° 46.9° 43.5° - - 887.0
4/26 2:30am 2 4 G 5 44° 87% - - 41° 46.9° 43.5° - - 887.0
4/26 2:20am 3 4 G 5 44° 87% - - 40° 46.9° 43.5° - - 887.0
4/26 2:10am 360 4 G 7 44° 87% - - 40° 46.9° 43.5° - - 887.0
4/26 2:00am 1 3 G 5 44° 87% - - 40° 46.9° 43.8° - - 887.0
4/26 1:50am 5 3 G 5 45° 87% - - 41° 46.9° 43.9° - - 887.0
4/26 1:40am 359 4 G 6 45° 86% - - 41° 46.9° 43.9° - - 887.0
4/26 1:30am 9 3 G 4 45° 86% - - 41° 46.9° 44.4° - - 887.0
4/26 1:20am 9 4 G 5 45° 86% - - 41° 46.9° 44.4° - - 887.0
4/26 1:10am 353 3 G 4 45° 85% - - 41° 46.9° 44.4° - - 886.0
4/26 1:00am 15 3 G 4 46° 85% - - 42° 46.9° 45.1° - - 887.0
4/26 12:50am 1 4 G 6 46° 84% - - 41° 46.9° 45.1° - - 886.0
4/26 12:40am 6 3 G 4 46° 84% - - 42° 46.9° 45.6° - - 886.0
4/26 12:30am 357 2 G 4 46° 84% - - 42° 46.9° 45.6° - - 886.0
4/26 12:20am 4 2 G 3 46° 84% - - 42° 46.8° 45.6° - - 886.0
4/26 12:10am 340 3 G 4 46° 84% - - 41° 46.7° 45.6° - - 886.0
4/26 12:00am 358 2 G 3 46° 83% - - 41° 62.5° 45.6° - - 886.0
4/25 11:50pm 340 2 G 3 46° 82% - - 41° 62.5° 45.7° - - 885.0
4/25 11:40pm 323 2 G 3 47° 81% - - 42° 62.5° 46.5° - - 885.0
4/25 11:30pm 39 1 G 3 49° 80% - - 43° 62.5° 47.8° - - 885.0
4/25 11:20pm 358 2 G 4 49° 79% - - 43° 62.5° 48.4° - - 885.0
4/25 11:10pm 132 1 G 2 49° 78% - - 43° 62.5° 48.7° - - 884.0
4/25 11:00pm 295 2 G 4 50° 77% - - 43° 62.5° 48.7° - - 884.0
4/25 10:50pm 350 2 G 4 50° 78% - - 43° 62.5° 48.7° - - 885.0
4/25 10:40pm 9 3 G 6 50° 78% - - 43° 62.5° 48.7° - - 885.0
4/25 10:30pm 317 5 G 9 50° 78% - - 43° 62.5° 48.7° - - 885.0
4/25 10:20pm 324 5 G 9 50° 78% - - 43° 62.5° 48.7° - - 885.0
4/25 10:10pm 298 10 G 14 50° 78% - - 43° 62.5° 48.7° - - 884.0
4/25 10:00pm 297 12 G 15 50° 77% - - 43° 62.5° 48.7° - - 884.0
4/25 9:50pm 298 10 G 13 50° 78% - - 43° 62.5° 48.7° - - 885.0
4/25 9:40pm 295 9 G 12 50° 77% - - 43° 62.5° 48.7° - - 884.0
4/25 9:30pm 296 8 G 11 51° 76% - - 43° 62.5° 48.7° - - 884.0
4/25 9:20pm 299 8 G 11 51° 76% - - 43° 62.5° 48.7° - - 884.0
4/25 9:10pm 302 8 G 12 51° 76% - - 44° 62.5° 48.7° - - 884.0
4/25 9:00pm 299 9 G 12 51° 76% - - 44° 62.5° 48.7° - - 884.0
4/25 8:50pm 293 9 G 13 51° 76% - - 44° 62.5° 48.7° - - 884.0
4/25 8:40pm 296 6 G 9 52° 76% - - 44° 62.5° 48.7° - - 884.0
4/25 8:30pm 292 6 G 10 52° 76% - - 45° 62.5° 48.7° - - 884.0
4/25 8:20pm 297 7 G 9 52° 75% - - 45° 62.5° 48.7° - - 884.0
4/25 8:10pm 293 7 G 9 53° 75% - - 45° 62.5° 48.7° - - 884.0
4/25 8:00pm 289 7 G 11 54° 75% - - 46° 62.5° 48.7° - - 884.0
4/25 7:50pm 291 8 G 10 54° 76% - - 46° 62.5° 48.7° - - 885.0
4/25 7:40pm 288 8 G 11 54° 76% - - 46° 62.5° 48.7° - - 885.0
4/25 7:30pm 287 10 G 15 54° 76% - - 47° 62.5° 48.7° - - 885.0
4/25 7:20pm 289 11 G 15 54° 77% - - 47° 62.5° 48.7° - - 885.0
4/25 7:10pm 284 10 G 14 54° 77% - - 47° 62.5° 48.7° - - 885.0
4/25 7:00pm 290 11 G 14 55° 76% - - 47° 62.5° 48.7° - - 885.0
4/25 6:50pm 285 10 G 14 55° 76% - - 47° 62.5° 48.7° - - 885.0
4/25 6:40pm 284 10 G 15 55° 75% - - 47° 62.5° 48.7° - - 885.0
4/25 6:30pm 282 9 G 13 55° 74% - - 47° 62.5° 48.7° - - 884.0
4/25 6:20pm 293 10 G 14 56° 73% - - 47° 62.5° 48.7° - - 884.0
4/25 6:10pm 286 10 G 14 56° 72% - - 47° 62.5° 48.7° - - 883.0
4/25 6:00pm 286 10 G 16 56° 70% - - 47° 62.5° 48.7° - - 883.0
4/25 5:50pm 291 11 G 15 56° 71% - - 47° 62.5° 48.7° - - 883.0
4/25 5:40pm 283 10 G 14 56° 71% - - 47° 62.5° 48.7° - - 883.0
4/25 5:30pm 293 11 G 15 57° 71% - - 47° 62.5° 48.7° - - 883.0
4/25 5:20pm 286 9 G 12 57° 70% - - 47° 62.5° 48.7° - - 883.0
4/25 5:10pm 284 11 G 15 57° 69% - - 47° 62.5° 48.7° - - 882.0
4/25 5:00pm 293 11 G 15 57° 68% - - 47° 62.5° 48.7° - - 882.0
4/25 4:50pm 287 11 G 16 57° 67% - - 47° 62.5° 48.7° - - 882.0
4/25 4:40pm 288 13 G 19 58° 67% - - 47° 62.5° 48.7° - - 882.0
4/25 4:30pm 290 14 G 18 58° 66% - - 47° 62.5° 48.7° - - 882.0
4/25 4:20pm 293 14 G 19 59° 65% - - 47° 62.5° 48.7° - - 881.0
4/25 4:10pm 293 15 G 19 59° 63% - - 47° 62.5° 48.7° - - 881.0
4/25 4:00pm 291 12 G 17 60° 62% - - 47° 62.5° 48.7° - - 880.0
4/25 3:50pm 286 12 G 18 60° 61% - - 46° 62.5° 48.7° - - 880.0
4/25 3:40pm 292 10 G 16 59° 61% - - 46° 62.5° 48.7° - - 880.0
4/25 3:30pm 292 11 G 16 60° 60% - - 46° 62.5° 48.7° - - 879.0
4/25 3:20pm 284 10 G 14 60° 58% - - 45° 62.5° 48.7° - - 879.0
4/25 3:10pm 272 10 G 16 60° 57% - - 45° 62.5° 48.7° - - 878.0
4/25 3:00pm 273 10 G 15 61° 54% - - 44° 62.5° 48.7° - - 877.0
4/25 2:50pm 282 12 G 18 61° 52% - - 44° 62.5° 48.7° - - 877.0
4/25 2:40pm 279 12 G 18 61° 55% - - 44° 62.5° 48.7° - - 878.0
4/25 2:30pm 285 12 G 18 61° 54% - - 45° 62.5° 48.7° - - 878.0
4/25 2:20pm 284 13 G 22 61° 54% - - 44° 62.5° 48.7° - - 877.0
4/25 2:10pm 294 11 G 17 61° 54% - - 44° 62.5° 48.7° - - 877.0
4/25 2:00pm 287 11 G 18 61° 52% - - 44° 62.5° 48.7° - - 877.0
4/25 1:50pm 290 11 G 20 62° 51% - - 43° 62.5° 48.7° - - 876.0
4/25 1:40pm 287 11 G 18 61° 53% - - 43° 62° 48.7° - - 877.0
4/25 1:30pm 291 11 G 18 61° 51% - - 43° 62° 48.7° - - 876.0
4/25 1:20pm 284 13 G 21 61° 51% - - 43° 62° 48.7° - - 876.0
4/25 1:10pm 284 14 G 23 61° 49% - - 42° 62° 48.7° - - 875.0
4/25 1:00pm 295 13 G 20 61° 50% - - 43° 62° 48.7° - - 876.0
4/25 12:50pm 299 11 G 20 61° 51% - - 43° 62° 48.7° - - 876.0
4/25 12:40pm 293 14 G 24 61° 49% - - 42° 61.2° 48.7° - - 875.0
4/25 12:30pm 295 13 G 19 61° 50% - - 42° 61.2° 48.7° - - 876.0
4/25 12:20pm 297 15 G 21 60° 51% - - 42° 60.7° 48.7° - - 876.0
4/25 12:10pm 296 14 G 21 60° 54% - - 43° 60.4° 48.7° - - 877.0
4/25 12:00pm 288 10 G 17 59° 55% - - 43° 60.2° 48.7° - - 877.0
4/25 11:50am 285 12 G 19 59° 56% - - 43° 59.6° 48.7° - - 878.0
4/25 11:40am 289 12 G 22 59° 57% - - 43° 59.6° 48.7° - - 878.0
4/25 11:30am 304 12 G 19 59° 57% - - 44° 59.6° 48.7° - - 878.0
4/25 11:20am 295 13 G 20 58° 59% - - 44° 58.7° 48.7° - - 879.0
4/25 11:10am 290 13 G 20 58° 59% - - 44° 58.7° 48.7° - - 879.0
4/25 11:00am 296 13 G 20 58° 59% - - 44° 58.7° 48.7° - - 879.0
4/25 10:50am 296 12 G 19 57° 60% - - 44° 58.4° 48.7° - - 879.0
4/25 10:40am 289 13 G 21 57° 61% - - 44° 57.7° 48.7° - - 879.0
4/25 10:30am 292 10 G 17 56° 62% - - 44° 57.2° 48.7° - - 880.0
4/25 10:20am 291 10 G 16 56° 65% - - 45° 56.7° 48.7° - - 881.0
4/25 10:10am 287 10 G 15 55° 67% - - 45° 55.9° 48.7° - - 882.0
4/25 10:00am 289 9 G 12 55° 68% - - 45° 55.9° 48.7° - - 882.0
4/25 9:50am 265 6 G 12 55° 68% - - 45° 55.9° 48.7° - - 882.0
4/25 9:40am 280 8 G 14 55° 69% - - 45° 55.7° 48.7° - - 882.0
4/25 9:30am 294 9 G 12 54° 71% - - 45° 54.6° 48.7° - - 883.0
4/25 9:20am 290 9 G 13 53° 73% - - 45° 54° 48.7° - - 883.0
4/25 9:10am 283 9 G 14 53° 73% - - 45° 54° 48.7° - - 883.0
4/25 9:00am 283 9 G 13 53° 75% - - 45° 53.3° 48.7° - - 884.0
4/25 8:50am 291 10 G 16 53° 76% - - 45° 53.2° 48.7° - - 884.0
4/25 8:40am 287 9 G 15 52° 78% - - 46° 53.1° 48.7° - - 885.0
4/25 8:30am 263 6 G 12 52° 80% - - 46° 52.1° 48.7° - - 886.0
4/25 8:20am 270 9 G 15 51° 81% - - 46° 51.8° 48.7° - - 886.0
4/25 8:10am 270 10 G 16 51° 81% - - 46° 51.8° 48.7° - - 886.0
4/25 8:00am 272 9 G 15 51° 81% - - 46° 51.8° 48.7° - - 886.0
4/25 7:50am 270 8 G 14 51° 82% - - 46° 51.5° 48.7° - - 887.0
4/25 7:40am 279 7 G 11 51° 82% - - 46° 51.2° 48.7° - - 887.0
4/25 7:30am 279 7 G 10 50° 85% - - 46° 50.8° 48.7° - - 888.0
4/25 7:20am 286 7 G 10 50° 86% - - 46° 50.7° 48.7° - - 888.0
4/25 7:10am 284 7 G 11 50° 83% - - 46° 50.7° 48.7° - - 887.0
4/25 7:00am 262 4 G 10 50° 83% - - 45° 50.4° 48.7° - - 887.0
4/25 6:50am 257 4 G 8 50° 83% - - 45° 50.3° 48.7° - - 887.0
4/25 6:40am 268 5 G 8 50° 86% - - 46° 50.2° 48.7° - - 888.0
4/25 6:30am 290 5 G 9 50° 87% - - 46° 50.1° 48.7° - - 888.0
4/25 6:20am 277 3 G 5 50° 86% - - 46° 50.1° 48.7° - - 888.0
4/25 6:10am 291 3 G 4 50° 86% - - 46° 50.1° 48.7° - - 888.0
4/25 6:00am 245 4 G 6 50° 86% - - 46° 50.1° 48.7° - - 888.0
4/25 5:50am 231 4 G 7 50° 86% - - 46° 50° 48.7° - - 888.0
4/25 5:40am 215 4 G 7 50° 86% - - 46° 49.8° 48.7° - - 888.0
4/25 5:30am 217 5 G 8 50° 87% - - 46° 49.8° 48.7° - - 888.0
4/25 5:20am 215 5 G 9 50° 87% - - 46° 49.8° 48.7° - - 888.0
4/25 5:10am 227 6 G 10 49° 89% - - 46° 49.6° 48.7° - - 889.0
4/25 5:00am 211 5 G 9 49° 90% - - 46° 49.6° 48.7° - - 889.0
4/25 4:50am 215 5 G 9 49° 90% - - 46° 49.6° 48.7° - - 889.0
4/25 4:40am 209 6 G 11 49° 90% - - 47° 49.6° 48.7° - - 890.0
4/25 4:30am 200 4 G 7 49° 91% - - 47° 49.6° 48.7° - - 890.0
4/25 4:20am 200 5 G 11 49° 90% - - 47° 49.6° 48.7° - - 890.0
4/25 4:10am 201 4 G 8 49° 91% - - 47° 49.6° 48.7° - - 890.0
4/25 4:00am 205 5 G 9 49° 91% - - 47° 49.6° 48.7° - - 890.0
4/25 3:50am 196 5 G 9 49° 91% - - 47° 49.6° 48.7° - - 890.0
4/25 3:40am 194 6 G 10 49° 90% - - 47° 49.6° 48.7° - - 890.0
4/25 3:30am 197 6 G 10 49° 90% - - 46° 49.6° 48.7° - - 889.0
4/25 3:20am 197 6 G 10 49° 90% - - 46° 49.6° 48.7° - - 889.0
4/25 3:10am 208 5 G 11 49° 90% - - 46° 49.6° 48.7° - - 890.0
4/25 3:00am 216 6 G 11 49° 90% - - 46° 49.6° 48.7° - - 890.0
4/25 2:50am 214 4 G 9 49° 91% - - 46° 49.6° 48.7° - - 890.0
4/25 2:40am 206 6 G 10 49° 91% - - 46° 49.6° 48.7° - - 890.0
4/25 2:30am 212 6 G 13 49° 91% - - 46° 49.6° 48.7° - - 890.0
4/25 2:20am 216 6 G 12 49° 91% - - 47° 49.6° 48.7° - - 890.0
4/25 2:10am 214 6 G 11 49° 91% - - 46° 49.6° 48.7° - - 890.0
4/25 2:00am 211 5 G 8 49° 90% - - 46° 49.6° 48.7° - - 890.0
4/25 1:50am 201 5 G 10 49° 90% - - 46° 49.6° 48.7° - - 889.0
4/25 1:40am 195 5 G 9 49° 90% - - 46° 49.6° 48.7° - - 889.0
4/25 1:30am 191 4 G 8 49° 90% - - 46° 49.6° 48.7° - - 889.0
4/25 1:20am 198 4 G 9 49° 89% - - 46° 49.6° 48.8° - - 889.0
4/25 1:10am 185 4 G 8 49° 88% - - 46° 49.6° 48.8° - - 889.0
4/25 1:00am 191 5 G 9 49° 88% - - 46° 49.6° 48.8° - - 888.0
4/25 12:50am 180 4 G 6 49° 87% - - 45° 49.6° 49° - - 888.0
4/25 12:40am 191 4 G 7 49° 86% - - 45° 49.6° 49° - - 888.0
4/25 12:30am 181 5 G 10 49° 85% - - 45° 49.6° 49° - - 887.0
4/25 12:20am 202 4 G 8 49° 84% - - 45° 49.6° 49° - - 887.0
4/25 12:10am 215 5 G 8 49° 85% - - 45° 49.5° 49° - - 888.0
4/25 12:00am 246 5 G 10 49° 85% - - 45° 66.4° 42.2° - - 888.0
4/24 11:50pm 253 4 G 7 50° 84% - - 45° 66.4° 42.2° - - 887.0
4/24 11:40pm 261 5 G 10 50° 83% - - 45° 66.4° 42.2° - - 887.0
4/24 11:30pm 272 5 G 9 50° 83% - - 45° 66.4° 42.2° - - 887.0
4/24 11:20pm 273 6 G 11 49° 84% - - 45° 66.4° 42.2° - - 887.0
4/24 11:10pm 277 4 G 9 49° 84% - - 45° 66.4° 42.2° - - 887.0
4/24 11:00pm 287 4 G 6 50° 84% - - 45° 66.4° 42.2° - - 887.0
4/24 10:50pm 279 2 G 4 50° 85% - - 46° 66.4° 42.2° - - 887.0
4/24 10:40pm 246 1 G 3 50° 84% - - 46° 66.4° 42.2° - - 887.0
4/24 10:30pm 276 4 G 5 50° 84% - - 45° 66.4° 42.2° - - 887.0
4/24 10:20pm 295 5 G 7 50° 83% - - 45° 66.4° 42.2° - - 887.0
4/24 10:10pm 273 4 G 9 50° 83% - - 45° 66.4° 42.2° - - 887.0
4/24 10:00pm 250 4 G 7 51° 83% - - 46° 66.4° 42.2° - - 887.0
4/24 9:50pm 269 5 G 8 51° 84% - - 46° 66.4° 42.2° - - 888.0
4/24 9:40pm 269 5 G 12 51° 85% - - 47° 66.4° 42.2° - - 888.0
4/24 9:30pm 278 6 G 11 51° 85% - - 47° 66.4° 42.2° - - 888.0
4/24 9:20pm 263 4 G 9 51° 86% - - 47° 66.4° 42.2° - - 888.0
4/24 9:10pm 269 5 G 10 52° 85% - - 47° 66.4° 42.2° - - 888.0
4/24 9:00pm 282 5 G 9 52° 84% - - 47° 66.4° 42.2° - - 888.0
4/24 8:50pm 285 4 G 7 52° 83% - - 47° 66.4° 42.2° - - 887.0
4/24 8:40pm 284 5 G 7 52° 82% - - 47° 66.4° 42.2° - - 887.0
4/24 8:30pm 281 6 G 11 52° 81% - - 47° 66.4° 42.2° - - 887.0
4/24 8:20pm 293 7 G 11 53° 81% - - 47° 66.4° 42.2° - - 887.0
4/24 8:10pm 281 9 G 14 53° 80% - - 47° 66.4° 42.2° - - 886.0
4/24 8:00pm 283 10 G 14 54° 79% - - 47° 66.4° 42.2° - - 886.0
4/24 7:50pm 281 9 G 13 54° 77% - - 47° 66.4° 42.2° - - 885.0
4/24 7:40pm 282 9 G 13 54° 76% - - 47° 66.4° 42.2° - - 885.0
4/24 7:30pm 283 10 G 15 55° 74% - - 47° 66.4° 42.2° - - 884.0
4/24 7:20pm 281 10 G 15 56° 72% - - 47° 66.4° 42.2° - - 883.0
4/24 7:10pm 286 10 G 14 56° 69% - - 46° 66.4° 42.2° - - 882.0
4/24 7:00pm 297 11 G 17 57° 67% - - 46° 66.4° 42.2° - - 882.0
4/24 6:50pm 293 11 G 17 58° 64% - - 46° 66.4° 42.2° - - 881.0
4/24 6:40pm 300 12 G 17 58° 62% - - 45° 66.4° 42.2° - - 880.0
4/24 6:30pm 297 13 G 20 59° 59% - - 44° 66.4° 42.2° - - 879.0
4/24 6:20pm 298 14 G 19 59° 56% - - 44° 66.4° 42.2° - - 878.0
4/24 6:10pm 296 13 G 19 60° 55% - - 44° 66.4° 42.2° - - 878.0
4/24 6:00pm 294 13 G 19 60° 53% - - 43° 66.4° 42.2° - - 877.0